Аэропорт
Брест (UMBB)

 UMBB / BQT
ЗЦ Беларусь
Минск (UMMV)
Минск (UMMV)
 52.10830, 23.89810  / 468 ft

 UMBB 161000Z 29003MPS 5000 BR BKN008CB M01/M03 Q1005 R29/SNOCLO NOSIG

AIP UMBB 03-2016
Название сценария Тип сценария Flight Simulator 9 Flight Simulator X Prepar3D v2 Prepar3D v3 Prepar3D v4 xPlane
UMBB-Brest бесплатный
UMBB-Brest бесплатный

Аэропорт “Брест”  (IATA: BQT, ICAO: UMBB) – международный всепогодный аэропорт высшего класса. Взлетно-посадочная полоса аэропорта позволяет принимать самолеты Боинг-747, ИЛ-86, Ту-154, Ан-124 и классом ниже, а минимально необходимый набор наземного технического оборудования – проводится техническое обслуживание указанной техники.  Для управления воздушным движением имеется необходимое радиосветотехническое оборудование, позволяющее обеспечивать прием и выпуск воздушных судов в соответствии с нормами I категории Международной организации гражданской авиации (ИКАО), что подтверждается соответствующим сертификатом годности.

 

ВПП Размеры, м Hпор, м МПУ взлета/посадки Освещение ВПП ДПРМ БПРМ ILS

11

2620×42 138,1 107° ОВИ-1 - 485 (C) -
29 2620×42 141,1 287° ОВИ-1 985 (BY) 485 (B) 110.30 (IBY)

 

На территории аэропорта установлен VOR-маяк с рабочей частотой 113.75, позывной BRT.  

 

Органы управления воздушным движением (ОрВД) аэропорта:

UMBB _TWR - Brest-Tower (approach and aerodrome control) - Брест -Вышка - 127.700

UMBB _ATIS - Brest-ATIS- Брест -АТИС - 136.520

 



2018 © VATRUS division